sensor_id;sensor_type;location;lat;lon;timestamp;P1;durP1;ratioP1;P2;durP2;ratioP2
78120;SDS011;67585;44.802;10.332;2024-02-15T00:00:36;10.43;;;3.45;;
78120;SDS011;67585;44.802;10.332;2024-02-15T00:03:02;10.50;;;3.38;;
78120;SDS011;67585;44.802;10.332;2024-02-15T00:05:31;13.85;;;3.50;;
78120;SDS011;67585;44.802;10.332;2024-02-15T00:07:57;11.13;;;3.13;;
78120;SDS011;67585;44.802;10.332;2024-02-15T00:10:22;9.90;;;3.72;;
78120;SDS011;67585;44.802;10.332;2024-02-15T00:15:16;11.18;;;3.33;;
78120;SDS011;67585;44.802;10.332;2024-02-15T00:17:41;11.60;;;2.80;;
78120;SDS011;67585;44.802;10.332;2024-02-15T00:20:07;11.98;;;3.78;;
78120;SDS011;67585;44.802;10.332;2024-02-15T00:22:34;9.07;;;2.75;;
78120;SDS011;67585;44.802;10.332;2024-02-15T00:24:59;9.57;;;2.80;;
78120;SDS011;67585;44.802;10.332;2024-02-15T00:27:25;8.85;;;2.70;;
78120;SDS011;67585;44.802;10.332;2024-02-15T00:29:50;10.50;;;3.30;;
78120;SDS011;67585;44.802;10.332;2024-02-15T00:32:15;10.77;;;3.13;;
78120;SDS011;67585;44.802;10.332;2024-02-15T00:34:41;8.27;;;2.30;;
78120;SDS011;67585;44.802;10.332;2024-02-15T00:37:06;10.07;;;3.25;;
78120;SDS011;67585;44.802;10.332;2024-02-15T00:39:32;12.52;;;4.20;;
78120;SDS011;67585;44.802;10.332;2024-02-15T00:41:57;8.00;;;2.60;;
78120;SDS011;67585;44.802;10.332;2024-02-15T00:44:25;10.70;;;2.72;;
78120;SDS011;67585;44.802;10.332;2024-02-15T00:46:53;11.15;;;3.30;;
78120;SDS011;67585;44.802;10.332;2024-02-15T00:49:18;12.55;;;4.20;;
78120;SDS011;67585;44.802;10.332;2024-02-15T00:51:47;14.05;;;3.90;;
78120;SDS011;67585;44.802;10.332;2024-02-15T00:54:12;15.32;;;3.47;;
78120;SDS011;67585;44.802;10.332;2024-02-15T00:56:38;12.48;;;4.15;;
78120;SDS011;67585;44.802;10.332;2024-02-15T00:59:03;11.00;;;3.63;;
78120;SDS011;67585;44.802;10.332;2024-02-15T01:01:30;11.02;;;3.97;;
78120;SDS011;67585;44.802;10.332;2024-02-15T01:03:55;15.60;;;4.20;;
78120;SDS011;67585;44.802;10.332;2024-02-15T01:06:21;14.82;;;4.25;;
78120;SDS011;67585;44.802;10.332;2024-02-15T01:08:47;11.73;;;3.47;;
78120;SDS011;67585;44.802;10.332;2024-02-15T01:11:12;9.45;;;3.35;;
78120;SDS011;67585;44.802;10.332;2024-02-15T01:13:38;10.65;;;3.70;;
78120;SDS011;67585;44.802;10.332;2024-02-15T01:16:04;7.53;;;2.47;;
78120;SDS011;67585;44.802;10.332;2024-02-15T01:18:30;11.30;;;4.15;;
78120;SDS011;67585;44.802;10.332;2024-02-15T01:20:56;11.50;;;3.08;;
78120;SDS011;67585;44.802;10.332;2024-02-15T01:23:22;10.68;;;3.63;;
78120;SDS011;67585;44.802;10.332;2024-02-15T01:25:48;8.05;;;2.53;;
78120;SDS011;67585;44.802;10.332;2024-02-15T01:28:13;9.43;;;1.90;;
78120;SDS011;67585;44.802;10.332;2024-02-15T01:30:39;10.30;;;2.53;;
78120;SDS011;67585;44.802;10.332;2024-02-15T01:33:05;10.35;;;2.40;;
78120;SDS011;67585;44.802;10.332;2024-02-15T01:35:30;6.38;;;1.48;;
78120;SDS011;67585;44.802;10.332;2024-02-15T01:37:55;8.15;;;1.77;;
78120;SDS011;67585;44.802;10.332;2024-02-15T01:40:21;7.97;;;2.28;;
78120;SDS011;67585;44.802;10.332;2024-02-15T01:42:47;7.82;;;1.80;;
78120;SDS011;67585;44.802;10.332;2024-02-15T01:45:14;8.05;;;1.40;;
78120;SDS011;67585;44.802;10.332;2024-02-15T01:47:41;8.48;;;1.33;;
78120;SDS011;67585;44.802;10.332;2024-02-15T01:50:08;5.55;;;1.75;;
78120;SDS011;67585;44.802;10.332;2024-02-15T01:52:36;7.95;;;1.23;;
78120;SDS011;67585;44.802;10.332;2024-02-15T01:55:03;6.32;;;1.35;;
78120;SDS011;67585;44.802;10.332;2024-02-15T01:57:33;5.28;;;1.30;;
78120;SDS011;67585;44.802;10.332;2024-02-15T02:00:00;11.45;;;2.15;;
78120;SDS011;67585;44.802;10.332;2024-02-15T02:02:27;7.95;;;1.08;;
78120;SDS011;67585;44.802;10.332;2024-02-15T02:04:57;8.02;;;1.40;;
78120;SDS011;67585;44.802;10.332;2024-02-15T02:07:23;7.40;;;1.13;;
78120;SDS011;67585;44.802;10.332;2024-02-15T02:09:48;6.38;;;1.25;;
78120;SDS011;67585;44.802;10.332;2024-02-15T02:12:14;7.38;;;2.28;;
78120;SDS011;67585;44.802;10.332;2024-02-15T02:14:40;7.47;;;2.13;;
78120;SDS011;67585;44.802;10.332;2024-02-15T02:17:15;10.10;;;2.92;;
78120;SDS011;67585;44.802;10.332;2024-02-15T02:19:44;12.45;;;3.40;;
78120;SDS011;67585;44.802;10.332;2024-02-15T02:22:09;7.13;;;2.60;;
78120;SDS011;67585;44.802;10.332;2024-02-15T02:24:44;7.95;;;2.03;;
78120;SDS011;67585;44.802;10.332;2024-02-15T02:27:22;9.25;;;1.42;;
78120;SDS011;67585;44.802;10.332;2024-02-15T02:29:48;5.85;;;0.85;;
78120;SDS011;67585;44.802;10.332;2024-02-15T02:32:14;6.22;;;1.20;;
78120;SDS011;67585;44.802;10.332;2024-02-15T02:34:39;4.82;;;0.85;;
78120;SDS011;67585;44.802;10.332;2024-02-15T02:37:06;4.53;;;0.77;;
78120;SDS011;67585;44.802;10.332;2024-02-15T02:39:33;7.05;;;0.75;;
78120;SDS011;67585;44.802;10.332;2024-02-15T02:41:58;6.10;;;0.80;;
78120;SDS011;67585;44.802;10.332;2024-02-15T02:44:24;4.75;;;0.98;;
78120;SDS011;67585;44.802;10.332;2024-02-15T02:46:49;5.60;;;1.00;;
78120;SDS011;67585;44.802;10.332;2024-02-15T02:49:15;4.40;;;0.73;;
78120;SDS011;67585;44.802;10.332;2024-02-15T02:51:40;5.07;;;0.75;;
78120;SDS011;67585;44.802;10.332;2024-02-15T02:54:05;5.60;;;1.13;;
78120;SDS011;67585;44.802;10.332;2024-02-15T02:56:32;5.78;;;1.08;;
78120;SDS011;67585;44.802;10.332;2024-02-15T02:58:58;7.25;;;1.30;;
78120;SDS011;67585;44.802;10.332;2024-02-15T03:01:23;5.25;;;1.42;;
78120;SDS011;67585;44.802;10.332;2024-02-15T03:03:51;5.85;;;1.20;;
78120;SDS011;67585;44.802;10.332;2024-02-15T03:06:17;5.93;;;1.00;;
78120;SDS011;67585;44.802;10.332;2024-02-15T03:08:42;5.97;;;1.02;;
78120;SDS011;67585;44.802;10.332;2024-02-15T03:11:09;7.15;;;1.10;;
78120;SDS011;67585;44.802;10.332;2024-02-15T03:13:34;6.03;;;1.33;;
78120;SDS011;67585;44.802;10.332;2024-02-15T03:16:00;10.43;;;2.35;;
78120;SDS011;67585;44.802;10.332;2024-02-15T03:18:26;5.90;;;1.23;;
78120;SDS011;67585;44.802;10.332;2024-02-15T03:20:51;6.60;;;2.28;;
78120;SDS011;67585;44.802;10.332;2024-02-15T03:23:16;6.53;;;1.38;;
78120;SDS011;67585;44.802;10.332;2024-02-15T03:25:42;4.82;;;1.30;;
78120;SDS011;67585;44.802;10.332;2024-02-15T03:28:08;8.23;;;2.22;;
78120;SDS011;67585;44.802;10.332;2024-02-15T03:30:33;8.15;;;0.82;;
78120;SDS011;67585;44.802;10.332;2024-02-15T03:32:59;7.55;;;1.13;;
78120;SDS011;67585;44.802;10.332;2024-02-15T03:35:25;8.07;;;0.93;;
78120;SDS011;67585;44.802;10.332;2024-02-15T03:37:53;6.32;;;1.35;;
78120;SDS011;67585;44.802;10.332;2024-02-15T03:40:19;5.82;;;0.85;;
78120;SDS011;67585;44.802;10.332;2024-02-15T03:42:45;4.35;;;1.00;;
78120;SDS011;67585;44.802;10.332;2024-02-15T03:45:17;4.72;;;1.00;;
78120;SDS011;67585;44.802;10.332;2024-02-15T03:47:42;3.05;;;0.65;;
78120;SDS011;67585;44.802;10.332;2024-02-15T03:50:08;4.97;;;0.95;;
78120;SDS011;67585;44.802;10.332;2024-02-15T03:52:39;5.95;;;0.95;;
78120;SDS011;67585;44.802;10.332;2024-02-15T03:55:07;5.60;;;0.98;;
78120;SDS011;67585;44.802;10.332;2024-02-15T03:57:32;6.63;;;1.33;;
78120;SDS011;67585;44.802;10.332;2024-02-15T03:59:58;7.03;;;1.45;;
78120;SDS011;67585;44.802;10.332;2024-02-15T04:02:25;6.90;;;1.52;;
78120;SDS011;67585;44.802;10.332;2024-02-15T04:04:55;8.02;;;1.48;;
78120;SDS011;67585;44.802;10.332;2024-02-15T04:07:21;5.72;;;1.15;;
78120;SDS011;67585;44.802;10.332;2024-02-15T04:09:47;6.97;;;0.57;;
78120;SDS011;67585;44.802;10.332;2024-02-15T04:12:13;13.23;;;1.40;;
78120;SDS011;67585;44.802;10.332;2024-02-15T04:14:40;6.97;;;1.65;;
78120;SDS011;67585;44.802;10.332;2024-02-15T04:17:05;7.18;;;1.60;;
78120;SDS011;67585;44.802;10.332;2024-02-15T04:19:31;4.45;;;0.75;;
78120;SDS011;67585;44.802;10.332;2024-02-15T04:21:57;7.47;;;0.77;;
78120;SDS011;67585;44.802;10.332;2024-02-15T04:24:23;4.20;;;0.68;;
78120;SDS011;67585;44.802;10.332;2024-02-15T04:26:49;5.78;;;0.98;;
78120;SDS011;67585;44.802;10.332;2024-02-15T04:29:15;7.38;;;1.10;;
78120;SDS011;67585;44.802;10.332;2024-02-15T04:31:40;4.90;;;0.90;;
78120;SDS011;67585;44.802;10.332;2024-02-15T04:36:34;4.00;;;0.80;;
78120;SDS011;67585;44.802;10.332;2024-02-15T04:39:00;4.35;;;1.38;;
78120;SDS011;67585;44.802;10.332;2024-02-15T04:41:29;3.72;;;0.75;;
78120;SDS011;67585;44.802;10.332;2024-02-15T04:43:54;7.00;;;1.77;;
78120;SDS011;67585;44.802;10.332;2024-02-15T04:46:20;5.97;;;0.82;;
78120;SDS011;67585;44.802;10.332;2024-02-15T04:48:49;5.18;;;0.85;;
78120;SDS011;67585;44.802;10.332;2024-02-15T04:51:15;6.78;;;1.42;;
78120;SDS011;67585;44.802;10.332;2024-02-15T04:53:42;5.63;;;0.80;;
78120;SDS011;67585;44.802;10.332;2024-02-15T04:56:08;6.43;;;0.57;;
78120;SDS011;67585;44.802;10.332;2024-02-15T04:58:39;5.95;;;1.20;;
78120;SDS011;67585;44.802;10.332;2024-02-15T05:03:42;4.80;;;0.60;;
78120;SDS011;67585;44.802;10.332;2024-02-15T05:06:07;3.40;;;0.28;;
78120;SDS011;67585;44.802;10.332;2024-02-15T05:08:34;3.70;;;0.55;;
78120;SDS011;67585;44.802;10.332;2024-02-15T05:11:07;4.95;;;0.63;;
78120;SDS011;67585;44.802;10.332;2024-02-15T05:13:45;4.60;;;0.73;;
78120;SDS011;67585;44.802;10.332;2024-02-15T05:16:11;6.63;;;0.82;;
78120;SDS011;67585;44.802;10.332;2024-02-15T05:18:37;2.88;;;0.60;;
78120;SDS011;67585;44.802;10.332;2024-02-15T05:21:05;4.68;;;0.60;;
78120;SDS011;67585;44.802;10.332;2024-02-15T05:23:34;3.30;;;0.45;;
78120;SDS011;67585;44.802;10.332;2024-02-15T05:28:28;2.42;;;0.30;;
78120;SDS011;67585;44.802;10.332;2024-02-15T05:31:08;3.55;;;0.40;;
78120;SDS011;67585;44.802;10.332;2024-02-15T05:33:40;3.03;;;0.73;;
78120;SDS011;67585;44.802;10.332;2024-02-15T05:36:11;4.63;;;1.05;;
78120;SDS011;67585;44.802;10.332;2024-02-15T05:38:38;4.10;;;0.55;;
78120;SDS011;67585;44.802;10.332;2024-02-15T05:41:04;4.75;;;0.50;;
78120;SDS011;67585;44.802;10.332;2024-02-15T05:43:29;5.10;;;0.75;;
78120;SDS011;67585;44.802;10.332;2024-02-15T05:45:55;6.78;;;0.60;;
78120;SDS011;67585;44.802;10.332;2024-02-15T05:48:26;7.97;;;0.73;;
78120;SDS011;67585;44.802;10.332;2024-02-15T05:50:53;4.45;;;0.40;;
78120;SDS011;67585;44.802;10.332;2024-02-15T05:53:19;4.70;;;0.73;;
78120;SDS011;67585;44.802;10.332;2024-02-15T05:55:45;4.00;;;0.77;;
78120;SDS011;67585;44.802;10.332;2024-02-15T05:58:10;3.67;;;0.38;;
78120;SDS011;67585;44.802;10.332;2024-02-15T06:00:37;6.55;;;0.95;;
78120;SDS011;67585;44.802;10.332;2024-02-15T06:03:04;4.72;;;1.15;;
78120;SDS011;67585;44.802;10.332;2024-02-15T06:05:31;4.57;;;1.00;;
78120;SDS011;67585;44.802;10.332;2024-02-15T06:07:57;4.47;;;0.70;;
78120;SDS011;67585;44.802;10.332;2024-02-15T06:10:23;5.82;;;0.47;;
78120;SDS011;67585;44.802;10.332;2024-02-15T06:12:50;4.43;;;0.73;;
78120;SDS011;67585;44.802;10.332;2024-02-15T06:15:15;7.45;;;0.77;;
78120;SDS011;67585;44.802;10.332;2024-02-15T06:17:41;3.65;;;1.08;;
78120;SDS011;67585;44.802;10.332;2024-02-15T06:20:11;7.20;;;1.05;;
78120;SDS011;67585;44.802;10.332;2024-02-15T06:22:42;4.88;;;0.60;;
78120;SDS011;67585;44.802;10.332;2024-02-15T06:25:08;3.03;;;0.60;;
78120;SDS011;67585;44.802;10.332;2024-02-15T06:27:37;6.47;;;0.40;;
78120;SDS011;67585;44.802;10.332;2024-02-15T06:30:06;3.85;;;0.50;;
78120;SDS011;67585;44.802;10.332;2024-02-15T06:32:51;4.97;;;0.73;;
78120;SDS011;67585;44.802;10.332;2024-02-15T06:35:35;3.17;;;0.30;;
78120;SDS011;67585;44.802;10.332;2024-02-15T06:38:19;3.50;;;0.43;;
78120;SDS011;67585;44.802;10.332;2024-02-15T06:41:03;4.22;;;0.40;;
78120;SDS011;67585;44.802;10.332;2024-02-15T06:43:29;4.03;;;0.82;;
78120;SDS011;67585;44.802;10.332;2024-02-15T06:45:55;3.38;;;0.60;;
78120;SDS011;67585;44.802;10.332;2024-02-15T06:48:20;2.58;;;0.28;;
78120;SDS011;67585;44.802;10.332;2024-02-15T06:50:48;2.13;;;0.35;;
78120;SDS011;67585;44.802;10.332;2024-02-15T06:53:14;3.85;;;0.65;;
78120;SDS011;67585;44.802;10.332;2024-02-15T06:55:39;7.90;;;0.50;;
78120;SDS011;67585;44.802;10.332;2024-02-15T06:58:05;3.25;;;0.28;;
78120;SDS011;67585;44.802;10.332;2024-02-15T07:00:31;3.85;;;0.68;;
78120;SDS011;67585;44.802;10.332;2024-02-15T07:02:57;5.03;;;0.65;;
78120;SDS011;67585;44.802;10.332;2024-02-15T07:05:22;4.82;;;0.60;;
78120;SDS011;67585;44.802;10.332;2024-02-15T07:07:48;5.72;;;0.93;;
78120;SDS011;67585;44.802;10.332;2024-02-15T07:10:14;5.40;;;0.47;;
78120;SDS011;67585;44.802;10.332;2024-02-15T07:12:41;3.20;;;0.43;;
78120;SDS011;67585;44.802;10.332;2024-02-15T07:15:08;12.77;;;0.82;;
78120;SDS011;67585;44.802;10.332;2024-02-15T07:17:34;5.88;;;0.88;;
78120;SDS011;67585;44.802;10.332;2024-02-15T07:22:30;6.90;;;0.90;;
78120;SDS011;67585;44.802;10.332;2024-02-15T07:24:56;4.57;;;0.60;;
78120;SDS011;67585;44.802;10.332;2024-02-15T07:27:22;5.00;;;0.45;;
78120;SDS011;67585;44.802;10.332;2024-02-15T07:29:50;6.50;;;0.88;;
78120;SDS011;67585;44.802;10.332;2024-02-15T07:32:15;4.25;;;0.40;;
78120;SDS011;67585;44.802;10.332;2024-02-15T07:34:42;5.13;;;0.70;;
78120;SDS011;67585;44.802;10.332;2024-02-15T07:37:08;5.65;;;0.47;;
78120;SDS011;67585;44.802;10.332;2024-02-15T07:39:34;5.90;;;1.10;;
78120;SDS011;67585;44.802;10.332;2024-02-15T07:42:01;6.78;;;0.80;;
78120;SDS011;67585;44.802;10.332;2024-02-15T07:44:29;6.07;;;0.95;;
78120;SDS011;67585;44.802;10.332;2024-02-15T07:46:57;3.35;;;0.32;;
78120;SDS011;67585;44.802;10.332;2024-02-15T07:49:25;5.57;;;1.38;;
78120;SDS011;67585;44.802;10.332;2024-02-15T07:51:51;6.22;;;0.63;;
78120;SDS011;67585;44.802;10.332;2024-02-15T07:54:20;4.05;;;1.02;;
78120;SDS011;67585;44.802;10.332;2024-02-15T07:56:48;7.38;;;1.10;;
78120;SDS011;67585;44.802;10.332;2024-02-15T07:59:14;5.32;;;0.85;;
78120;SDS011;67585;44.802;10.332;2024-02-15T08:01:43;3.60;;;0.45;;
78120;SDS011;67585;44.802;10.332;2024-02-15T08:04:15;7.80;;;0.60;;
78120;SDS011;67585;44.802;10.332;2024-02-15T08:06:41;8.77;;;1.23;;
78120;SDS011;67585;44.802;10.332;2024-02-15T08:09:06;6.50;;;0.75;;
78120;SDS011;67585;44.802;10.332;2024-02-15T08:11:32;5.40;;;1.10;;
78120;SDS011;67585;44.802;10.332;2024-02-15T08:13:58;8.18;;;0.50;;
78120;SDS011;67585;44.802;10.332;2024-02-15T08:16:26;7.18;;;1.08;;
78120;SDS011;67585;44.802;10.332;2024-02-15T08:18:54;5.65;;;0.90;;
78120;SDS011;67585;44.802;10.332;2024-02-15T08:21:30;8.35;;;1.38;;
78120;SDS011;67585;44.802;10.332;2024-02-15T08:24:02;6.57;;;1.83;;
78120;SDS011;67585;44.802;10.332;2024-02-15T08:26:31;9.45;;;2.05;;
78120;SDS011;67585;44.802;10.332;2024-02-15T08:28:57;7.35;;;1.38;;
78120;SDS011;67585;44.802;10.332;2024-02-15T08:31:22;8.93;;;1.25;;
78120;SDS011;67585;44.802;10.332;2024-02-15T08:33:49;6.13;;;1.67;;
78120;SDS011;67585;44.802;10.332;2024-02-15T08:36:15;7.10;;;1.92;;
78120;SDS011;67585;44.802;10.332;2024-02-15T08:38:40;8.05;;;1.50;;
78120;SDS011;67585;44.802;10.332;2024-02-15T08:41:06;7.65;;;2.72;;
78120;SDS011;67585;44.802;10.332;2024-02-15T08:43:33;7.30;;;1.40;;
78120;SDS011;67585;44.802;10.332;2024-02-15T08:45:58;10.50;;;2.70;;
78120;SDS011;67585;44.802;10.332;2024-02-15T08:48:24;7.60;;;1.75;;
78120;SDS011;67585;44.802;10.332;2024-02-15T08:50:50;8.15;;;1.95;;
78120;SDS011;67585;44.802;10.332;2024-02-15T08:53:16;8.43;;;1.70;;
78120;SDS011;67585;44.802;10.332;2024-02-15T08:55:44;9.45;;;2.40;;
78120;SDS011;67585;44.802;10.332;2024-02-15T08:58:10;8.43;;;2.85;;
78120;SDS011;67585;44.802;10.332;2024-02-15T09:00:35;8.80;;;3.22;;
78120;SDS011;67585;44.802;10.332;2024-02-15T09:03:02;13.18;;;3.72;;
78120;SDS011;67585;44.802;10.332;2024-02-15T09:05:28;8.80;;;3.70;;
78120;SDS011;67585;44.802;10.332;2024-02-15T09:07:53;12.52;;;4.22;;
78120;SDS011;67585;44.802;10.332;2024-02-15T09:10:19;9.52;;;3.28;;
78120;SDS011;67585;44.802;10.332;2024-02-15T09:12:48;10.90;;;4.05;;
78120;SDS011;67585;44.802;10.332;2024-02-15T09:15:14;13.05;;;5.00;;
78120;SDS011;67585;44.802;10.332;2024-02-15T09:17:40;8.52;;;3.65;;
78120;SDS011;67585;44.802;10.332;2024-02-15T09:20:06;13.75;;;4.40;;
78120;SDS011;67585;44.802;10.332;2024-02-15T09:22:34;12.63;;;5.43;;
78120;SDS011;67585;44.802;10.332;2024-02-15T09:25:01;15.23;;;6.45;;
78120;SDS011;67585;44.802;10.332;2024-02-15T09:27:27;14.40;;;6.15;;
78120;SDS011;67585;44.802;10.332;2024-02-15T09:29:52;13.43;;;5.53;;
78120;SDS011;67585;44.802;10.332;2024-02-15T09:32:18;17.98;;;6.63;;
78120;SDS011;67585;44.802;10.332;2024-02-15T09:34:43;15.52;;;5.25;;
78120;SDS011;67585;44.802;10.332;2024-02-15T09:37:09;14.27;;;5.20;;
78120;SDS011;67585;44.802;10.332;2024-02-15T09:39:34;16.73;;;6.95;;
78120;SDS011;67585;44.802;10.332;2024-02-15T09:42:02;14.95;;;5.88;;
78120;SDS011;67585;44.802;10.332;2024-02-15T09:44:28;14.15;;;6.15;;
78120;SDS011;67585;44.802;10.332;2024-02-15T09:47:02;19.20;;;7.18;;
78120;SDS011;67585;44.802;10.332;2024-02-15T09:49:33;18.98;;;7.22;;
78120;SDS011;67585;44.802;10.332;2024-02-15T09:52:00;14.40;;;7.80;;
78120;SDS011;67585;44.802;10.332;2024-02-15T09:54:28;17.80;;;7.55;;
78120;SDS011;67585;44.802;10.332;2024-02-15T09:56:55;19.02;;;8.75;;
78120;SDS011;67585;44.802;10.332;2024-02-15T09:59:24;17.23;;;8.35;;
78120;SDS011;67585;44.802;10.332;2024-02-15T10:01:51;19.13;;;8.90;;
78120;SDS011;67585;44.802;10.332;2024-02-15T10:04:23;25.92;;;9.52;;
78120;SDS011;67585;44.802;10.332;2024-02-15T10:06:50;22.08;;;10.00;;
78120;SDS011;67585;44.802;10.332;2024-02-15T10:09:25;25.65;;;12.02;;
78120;SDS011;67585;44.802;10.332;2024-02-15T10:11:55;27.95;;;11.40;;
78120;SDS011;67585;44.802;10.332;2024-02-15T10:14:27;27.30;;;11.25;;
78120;SDS011;67585;44.802;10.332;2024-02-15T10:16:54;24.33;;;12.02;;
78120;SDS011;67585;44.802;10.332;2024-02-15T10:19:20;23.70;;;12.50;;
78120;SDS011;67585;44.802;10.332;2024-02-15T10:21:52;21.65;;;11.27;;
78120;SDS011;67585;44.802;10.332;2024-02-15T10:24:21;21.40;;;11.82;;
78120;SDS011;67585;44.802;10.332;2024-02-15T10:26:49;23.08;;;12.05;;
78120;SDS011;67585;44.802;10.332;2024-02-15T10:29:14;25.48;;;11.27;;
78120;SDS011;67585;44.802;10.332;2024-02-15T10:31:55;28.98;;;13.20;;
78120;SDS011;67585;44.802;10.332;2024-02-15T10:34:22;26.88;;;12.98;;
78120;SDS011;67585;44.802;10.332;2024-02-15T10:36:48;26.48;;;11.98;;
78120;SDS011;67585;44.802;10.332;2024-02-15T10:39:18;29.25;;;13.27;;
78120;SDS011;67585;44.802;10.332;2024-02-15T10:41:47;27.95;;;13.85;;
78120;SDS011;67585;44.802;10.332;2024-02-15T10:44:20;26.42;;;12.05;;
78120;SDS011;67585;44.802;10.332;2024-02-15T10:46:47;25.42;;;12.52;;
78120;SDS011;67585;44.802;10.332;2024-02-15T10:49:17;26.98;;;12.32;;
78120;SDS011;67585;44.802;10.332;2024-02-15T10:51:44;28.00;;;13.15;;
78120;SDS011;67585;44.802;10.332;2024-02-15T10:54:13;26.33;;;13.43;;
78120;SDS011;67585;44.802;10.332;2024-02-15T10:56:44;29.67;;;12.95;;
78120;SDS011;67585;44.802;10.332;2024-02-15T10:59:17;27.30;;;13.98;;
78120;SDS011;67585;44.802;10.332;2024-02-15T11:01:49;28.80;;;12.95;;
78120;SDS011;67585;44.802;10.332;2024-02-15T11:04:19;26.33;;;12.77;;
78120;SDS011;67585;44.802;10.332;2024-02-15T11:06:50;24.77;;;11.95;;
78120;SDS011;67585;44.802;10.332;2024-02-15T11:09:20;30.75;;;13.32;;
78120;SDS011;67585;44.802;10.332;2024-02-15T11:11:47;26.98;;;12.73;;
78120;SDS011;67585;44.802;10.332;2024-02-15T11:17:03;27.65;;;14.10;;
78120;SDS011;67585;44.802;10.332;2024-02-15T11:21:59;33.38;;;13.18;;
78120;SDS011;67585;44.802;10.332;2024-02-15T11:24:28;28.60;;;12.18;;
78120;SDS011;67585;44.802;10.332;2024-02-15T11:27:00;30.58;;;14.40;;
78120;SDS011;67585;44.802;10.332;2024-02-15T11:29:51;27.02;;;13.48;;
78120;SDS011;67585;44.802;10.332;2024-02-15T11:40:13;25.40;;;12.55;;
78120;SDS011;67585;44.802;10.332;2024-02-15T11:42:38;26.23;;;13.65;;
78120;SDS011;67585;44.802;10.332;2024-02-15T11:45:05;25.42;;;13.13;;
78120;SDS011;67585;44.802;10.332;2024-02-15T11:47:32;29.77;;;15.20;;
78120;SDS011;67585;44.802;10.332;2024-02-15T11:50:03;29.02;;;14.48;;
78120;SDS011;67585;44.802;10.332;2024-02-15T11:52:29;31.20;;;14.77;;
78120;SDS011;67585;44.802;10.332;2024-02-15T11:55:03;30.27;;;13.77;;
78120;SDS011;67585;44.802;10.332;2024-02-15T11:57:29;34.22;;;15.27;;
78120;SDS011;67585;44.802;10.332;2024-02-15T12:00:03;34.22;;;15.68;;
78120;SDS011;67585;44.802;10.332;2024-02-15T12:02:59;31.48;;;16.77;;
78120;SDS011;67585;44.802;10.332;2024-02-15T12:05:44;28.63;;;12.63;;
78120;SDS011;67585;44.802;10.332;2024-02-15T12:08:28;34.15;;;14.30;;
78120;SDS011;67585;44.802;10.332;2024-02-15T12:11:13;32.42;;;14.48;;
78120;SDS011;67585;44.802;10.332;2024-02-15T12:13:57;30.27;;;14.05;;
78120;SDS011;67585;44.802;10.332;2024-02-15T12:16:41;29.80;;;14.27;;
78120;SDS011;67585;44.802;10.332;2024-02-15T12:19:25;30.77;;;14.00;;
78120;SDS011;67585;44.802;10.332;2024-02-15T12:21:51;35.47;;;15.75;;
78120;SDS011;67585;44.802;10.332;2024-02-15T12:24:17;29.85;;;15.40;;
78120;SDS011;67585;44.802;10.332;2024-02-15T12:26:45;37.70;;;15.57;;
78120;SDS011;67585;44.802;10.332;2024-02-15T12:29:16;33.70;;;15.93;;
78120;SDS011;67585;44.802;10.332;2024-02-15T12:31:44;32.10;;;15.23;;
78120;SDS011;67585;44.802;10.332;2024-02-15T12:34:10;36.92;;;16.00;;
78120;SDS011;67585;44.802;10.332;2024-02-15T12:36:37;33.17;;;15.77;;
78120;SDS011;67585;44.802;10.332;2024-02-15T12:39:03;29.70;;;14.77;;
78120;SDS011;67585;44.802;10.332;2024-02-15T12:44:07;35.85;;;16.20;;
78120;SDS011;67585;44.802;10.332;2024-02-15T12:46:35;32.67;;;15.07;;
78120;SDS011;67585;44.802;10.332;2024-02-15T12:49:10;32.17;;;16.50;;
78120;SDS011;67585;44.802;10.332;2024-02-15T12:51:53;38.55;;;15.48;;
78120;SDS011;67585;44.802;10.332;2024-02-15T12:54:20;33.63;;;16.40;;
78120;SDS011;67585;44.802;10.332;2024-02-15T12:56:46;37.00;;;15.68;;
78120;SDS011;67585;44.802;10.332;2024-02-15T12:59:14;33.63;;;17.30;;
78120;SDS011;67585;44.802;10.332;2024-02-15T13:01:40;36.38;;;15.65;;
78120;SDS011;67585;44.802;10.332;2024-02-15T13:04:05;42.97;;;18.15;;
78120;SDS011;67585;44.802;10.332;2024-02-15T13:06:31;38.70;;;16.67;;
78120;SDS011;67585;44.802;10.332;2024-02-15T13:09:00;31.92;;;15.48;;
78120;SDS011;67585;44.802;10.332;2024-02-15T13:11:25;34.92;;;17.00;;
78120;SDS011;67585;44.802;10.332;2024-02-15T13:13:51;35.15;;;15.23;;
78120;SDS011;67585;44.802;10.332;2024-02-15T13:16:16;35.22;;;15.75;;
78120;SDS011;67585;44.802;10.332;2024-02-15T13:18:43;35.20;;;16.15;;
78120;SDS011;67585;44.802;10.332;2024-02-15T13:21:10;33.15;;;16.52;;
78120;SDS011;67585;44.802;10.332;2024-02-15T13:23:36;37.20;;;16.80;;
78120;SDS011;67585;44.802;10.332;2024-02-15T13:26:02;36.53;;;16.95;;
78120;SDS011;67585;44.802;10.332;2024-02-15T13:28:29;36.50;;;16.98;;
78120;SDS011;67585;44.802;10.332;2024-02-15T13:30:55;33.33;;;15.50;;
78120;SDS011;67585;44.802;10.332;2024-02-15T13:33:21;35.30;;;16.35;;
78120;SDS011;67585;44.802;10.332;2024-02-15T13:35:47;38.00;;;16.73;;
78120;SDS011;67585;44.802;10.332;2024-02-15T13:38:14;36.22;;;16.98;;
78120;SDS011;67585;44.802;10.332;2024-02-15T13:43:14;31.38;;;14.48;;
78120;SDS011;67585;44.802;10.332;2024-02-15T13:45:41;32.67;;;16.77;;
78120;SDS011;67585;44.802;10.332;2024-02-15T13:48:09;37.13;;;15.95;;
78120;SDS011;67585;44.802;10.332;2024-02-15T13:50:35;37.63;;;16.30;;
78120;SDS011;67585;44.802;10.332;2024-02-15T13:53:01;37.33;;;16.80;;
78120;SDS011;67585;44.802;10.332;2024-02-15T13:55:28;40.05;;;15.77;;
78120;SDS011;67585;44.802;10.332;2024-02-15T13:57:54;33.25;;;15.23;;
78120;SDS011;67585;44.802;10.332;2024-02-15T14:00:24;35.38;;;17.45;;
78120;SDS011;67585;44.802;10.332;2024-02-15T14:02:59;35.33;;;17.35;;
78120;SDS011;67585;44.802;10.332;2024-02-15T14:05:26;37.95;;;18.30;;
78120;SDS011;67585;44.802;10.332;2024-02-15T14:08:03;38.42;;;18.77;;
78120;SDS011;67585;44.802;10.332;2024-02-15T14:10:36;41.40;;;18.63;;
78120;SDS011;67585;44.802;10.332;2024-02-15T14:13:02;36.85;;;17.77;;
78120;SDS011;67585;44.802;10.332;2024-02-15T14:15:29;36.55;;;18.00;;
78120;SDS011;67585;44.802;10.332;2024-02-15T14:17:54;38.75;;;18.17;;
78120;SDS011;67585;44.802;10.332;2024-02-15T14:20:21;36.17;;;16.67;;
78120;SDS011;67585;44.802;10.332;2024-02-15T14:22:47;37.13;;;17.55;;
78120;SDS011;67585;44.802;10.332;2024-02-15T14:25:25;41.88;;;20.13;;
78120;SDS011;67585;44.802;10.332;2024-02-15T14:27:51;36.80;;;17.38;;
78120;SDS011;67585;44.802;10.332;2024-02-15T14:30:19;35.83;;;16.90;;
78120;SDS011;67585;44.802;10.332;2024-02-15T14:33:03;37.88;;;17.35;;
78120;SDS011;67585;44.802;10.332;2024-02-15T14:35:32;39.28;;;17.80;;
78120;SDS011;67585;44.802;10.332;2024-02-15T14:38:02;41.50;;;18.23;;
78120;SDS011;67585;44.802;10.332;2024-02-15T14:40:30;40.15;;;18.90;;
78120;SDS011;67585;44.802;10.332;2024-02-15T14:42:58;39.08;;;17.15;;
78120;SDS011;67585;44.802;10.332;2024-02-15T14:45:24;37.20;;;17.10;;
78120;SDS011;67585;44.802;10.332;2024-02-15T14:47:50;38.55;;;16.52;;
78120;SDS011;67585;44.802;10.332;2024-02-15T14:50:15;38.72;;;17.38;;
78120;SDS011;67585;44.802;10.332;2024-02-15T14:52:40;34.53;;;15.55;;
78120;SDS011;67585;44.802;10.332;2024-02-15T14:55:06;39.70;;;18.25;;
78120;SDS011;67585;44.802;10.332;2024-02-15T14:57:36;37.33;;;17.58;;